Terminal Aerodrome Forecast
Issued by NWS Austin/San Antonio, TX

Home | Current Version | Previous Version | Text Only | Print | Product List | Glossary On
Versions: 1 2 3 4 5 6 7 8 9 10 11 12 13 14 15
902
FTUS44 KEWX 240605 AAA
TAFDRT
TAF AMD
KDRT 240605Z 2406/2506 03028G39KT 1 1/2SM +RA VCTS FEW040 OVC060CB
     FM240700 36012KT P6SM VCSH SCT010 BKN035
     FM241000 11010KT P6SM VCSH BKN022
     FM241800 08010KT P6SM VCSH SCT035 BKN250=

USA.gov is the U.S. government's official web portal to all federal, state and local government web resources and services.